createdAt,value
2022-09-17T00:04:28.123Z,0.73
2022-09-17T00:14:29.932Z,0.95
2022-09-17T00:24:31.726Z,0.60
2022-09-17T00:34:33.547Z,0.55
2022-09-17T00:44:55.923Z,0.63
2022-09-17T00:55:07.541Z,0.60
2022-09-17T01:05:11.193Z,1.42
2022-09-17T01:15:22.789Z,1.20
2022-09-17T01:25:34.263Z,0.50
2022-09-17T01:35:48.188Z,0.95
2022-09-17T01:46:18.282Z,0.63
2022-09-17T01:56:24.829Z,0.45
2022-09-17T02:06:31.128Z,1.33
2022-09-17T02:16:36.062Z,0.43
2022-09-17T02:26:45.047Z,0.73
2022-09-17T02:36:47.534Z,0.40
2022-09-17T02:47:26.670Z,0.35
2022-09-17T02:57:38.062Z,0.30
2022-09-17T03:07:40.644Z,1.75
2022-09-17T03:17:42.386Z,0.88
2022-09-17T03:27:44.130Z,0.52
2022-09-17T03:37:47.386Z,0.38
2022-09-17T03:47:49.220Z,0.32
2022-09-17T03:57:51.281Z,0.57
2022-09-17T04:07:53.018Z,0.38
2022-09-17T04:17:58.044Z,0.30
2022-09-17T04:27:59.866Z,0.30
2022-09-17T04:38:01.862Z,1.75
2022-09-17T04:48:04.297Z,0.85
2022-09-17T04:58:06.224Z,0.43
2022-09-17T05:08:08.475Z,0.35
2022-09-17T05:18:10.278Z,0.20
2022-09-17T05:28:12.088Z,0.30
2022-09-17T05:38:13.924Z,0.52
2022-09-17T05:48:16.353Z,0.57
2022-09-17T05:58:19.417Z,0.25
2022-09-17T06:08:22.277Z,0.13
2022-09-17T06:18:24.054Z,0.30
2022-09-17T06:28:26.536Z,1.75
2022-09-17T06:38:28.738Z,0.80
2022-09-17T06:48:33.261Z,0.50
2022-09-17T06:58:41.550Z,0.45
2022-09-17T07:08:43.829Z,0.63
2022-09-17T07:18:46.023Z,1.55
2022-09-17T07:28:47.901Z,0.43
2022-09-17T07:38:49.658Z,0.80
2022-09-17T07:48:51.758Z,1.13
2022-09-17T07:58:53.942Z,0.90
2022-09-17T08:08:57.235Z,0.98
2022-09-17T08:18:59.100Z,0.65
2022-09-17T08:29:00.982Z,0.60
2022-09-17T08:39:03.231Z,3.08
2022-09-17T08:49:17.419Z,2.97
2022-09-17T08:59:34.755Z,7.85
2022-09-17T09:09:43.799Z,7.43
2022-09-17T09:19:46.805Z,6.28
2022-09-17T09:30:23.908Z,6.53
2022-09-17T09:40:46.336Z,4.93
2022-09-17T09:51:09.955Z,3.10
2022-09-17T10:01:15.023Z,6.50
2022-09-17T10:11:22.400Z,8.30
2022-09-17T10:21:42.041Z,6.03
2022-09-17T10:31:52.739Z,7.32
2022-09-17T10:41:54.719Z,5.65
2022-09-17T10:52:21.450Z,3.92
2022-09-17T11:02:42.201Z,5.82
2022-09-17T11:13:02.089Z,4.75
2022-09-17T11:23:23.603Z,3.80
2022-09-17T11:33:42.868Z,1.85
2022-09-17T11:44:18.730Z,1.83
2022-09-17T11:54:44.504Z,1.95
2022-09-17T12:05:03.474Z,1.85
2022-09-17T12:15:18.307Z,3.10
2022-09-17T12:25:21.796Z,3.45
2022-09-17T12:36:05.517Z,2.50
2022-09-17T12:46:13.947Z,1.23
2022-09-17T12:56:40.441Z,1.65
2022-09-17T13:07:19.745Z,2.17
2022-09-17T13:17:52.442Z,0.90
2022-09-17T13:28:20.573Z,0.50
2022-09-17T13:38:24.342Z,0.98
2022-09-17T13:48:32.525Z,0.77
2022-09-17T13:58:36.825Z,0.47
2022-09-17T14:08:45.053Z,0.25
2022-09-17T14:18:59.012Z,0.35
2022-09-17T14:29:47.051Z,0.32
2022-09-17T14:39:51.643Z,0.45
2022-09-17T14:49:54.097Z,0.30
2022-09-17T15:00:00.399Z,0.28
2022-09-17T15:10:13.326Z,0.45
2022-09-17T15:20:29.307Z,0.43
2022-09-17T15:30:31.170Z,0.17
2022-09-17T15:40:33.082Z,0.38
2022-09-17T15:50:49.780Z,0.32
2022-09-17T16:01:15.764Z,0.50
2022-09-17T16:11:19.610Z,0.20
2022-09-17T16:21:21.456Z,0.30
2022-09-17T16:31:24.621Z,0.32
2022-09-17T16:41:26.449Z,0.20
2022-09-17T16:51:28.205Z,0.30
2022-09-17T17:01:30.059Z,0.30
2022-09-17T17:11:31.925Z,0.28
2022-09-17T17:21:33.663Z,0.30
2022-09-17T17:31:35.937Z,0.40
2022-09-17T17:41:37.747Z,0.10
2022-09-17T17:51:39.500Z,0.20
2022-09-17T18:01:41.354Z,0.30
2022-09-17T18:11:44.308Z,0.20
2022-09-17T18:21:46.057Z,0.10
2022-09-17T18:31:47.925Z,0.20
2022-09-17T18:41:49.787Z,0.17
2022-09-17T18:51:51.563Z,0.20
2022-09-17T19:01:53.525Z,0.20
2022-09-17T19:11:55.296Z,0.10
2022-09-17T19:21:57.123Z,0.20
2022-09-17T19:31:58.880Z,0.10
2022-09-17T19:42:00.877Z,0.10
2022-09-17T19:52:02.849Z,0.10
2022-09-17T20:02:05.100Z,0.25
2022-09-17T20:12:07.092Z,0.10
2022-09-17T20:22:08.983Z,0.30
2022-09-17T20:32:11.229Z,0.10
2022-09-17T20:42:13.015Z,0.10
2022-09-17T20:52:19.081Z,0.10
2022-09-17T21:02:22.750Z,0.28
2022-09-17T21:12:27.640Z,0.35
2022-09-17T21:22:29.527Z,0.10
2022-09-17T21:32:31.284Z,0.10
2022-09-17T21:42:35.135Z,0.10
2022-09-17T21:52:36.984Z,0.10
2022-09-17T22:02:39.161Z,0.43
2022-09-17T22:12:41.032Z,0.57
2022-09-17T22:22:42.973Z,0.10
2022-09-17T22:32:44.773Z,0.20
2022-09-17T22:42:46.570Z,0.32
2022-09-17T22:52:48.695Z,0.17
2022-09-17T23:02:50.577Z,0.40
2022-09-17T23:12:54.314Z,0.40
2022-09-17T23:22:56.085Z,0.35
2022-09-17T23:32:58.829Z,0.35
2022-09-17T23:43:00.599Z,0.10
2022-09-17T23:53:02.345Z,0.10
